Ozark Regional Airport Mountain Home US
ICAO: KBPK
IATA: WMH
Category: Medium
Scheduled Services: No

Elevation: 928 ft
TransAlt. 18000 ft.

Airport Communications:
ASOS:133.975
MEMPHIS CNTR:126.85
CTAF/UNICOM:123

KBPK Zoom In..

If you have problems with the map follow the link
https://www.worldairports.se/pages/airport.php?
ICAO=KBPK

Runways:

(A) RW 05 length 5001 ft width 75 ft
ILS 111.95 / hdg 49

(B) RW 23 length 5001 ft width 75 ft
---- / hdg 229

Location; KBPK
Day. 22 / Time. 14.53 Zulu
* Altimeter: 30.20
* Temperature: -02° c. -28.4°f.
* Wind from: 150° Speed 06 kn.
Dewpoint: -06° c.
Visibility: 10 Statute Miles.
Clouds: Clear (automated report).

KBPK 221453Z AUTO 15006KT 10SM CLR M02/M06 A3020 RMK AO2 SLP235 T10171056 58013


Wind From 150°
Speed 06 kn.

 
 
jpsmedia worldairports.se 2020   terms of use